Time;durP1;ratioP1;P1;durP2;ratioP2;P2;SDS_P1;SDS_P2;PMS_P1;PMS_P2;Temp;Humidity;BMP_temperature;BMP_pressure;BME280_temperature;BME280_humidity;BME280_pressure;Samples;Min_cycle;Max_cycle;Signal;HPM_P1;HPM_P2
2021/05/08 00:01:03;;;;;;;5.07;4.40;;;5.80;1.00;;;;;;5068055;28;20229;-79
2021/05/08 00:03:29;;;;;;;6.30;4.68;;;5.70;1.00;;;;;;5062980;28;20233;-79
2021/05/08 00:05:56;;;;;;;8.80;5.45;;;5.70;1.00;;;;;;5074521;28;20229;-79
2021/05/08 00:08:22;;;;;;;5.32;4.85;;;5.60;1.00;;;;;;5050359;28;20235;-78
2021/05/08 00:10:48;;;;;;;4.53;4.07;;;5.60;1.00;;;;;;5064759;28;20252;-79
2021/05/08 00:13:15;;;;;;;5.13;4.63;;;5.50;1.00;;;;;;5052693;28;20217;-78
2021/05/08 00:15:41;;;;;;;5.88;5.25;;;5.50;1.00;;;;;;5061503;28;20564;-79
2021/05/08 00:18:09;;;;;;;5.05;4.63;;;5.40;1.00;;;;;;5067048;28;20340;-77
2021/05/08 00:20:35;;;;;;;5.80;5.00;;;5.40;1.00;;;;;;5073186;28;20232;-77
2021/05/08 00:23:01;;;;;;;7.07;5.43;;;5.50;1.00;;;;;;5073956;28;20228;-81
2021/05/08 00:25:27;;;;;;;5.30;4.68;;;5.40;1.00;;;;;;5064556;28;20221;-80
2021/05/08 00:27:54;;;;;;;4.97;4.55;;;5.30;1.00;;;;;;5061467;28;20272;-82
2021/05/08 00:30:21;;;;;;;5.78;5.28;;;5.30;1.00;;;;;;5077817;28;20289;-78
2021/05/08 00:32:48;;;;;;;6.47;5.82;;;5.30;1.00;;;;;;5089460;28;20220;-75
2021/05/08 00:35:14;;;;;;;5.60;5.10;;;5.30;1.00;;;;;;5086324;28;20332;-78
2021/05/08 00:37:40;;;;;;;5.53;5.10;;;5.30;1.00;;;;;;5070630;28;20223;-79
2021/05/08 00:40:07;;;;;;;5.47;4.97;;;5.30;1.00;;;;;;5064669;28;20231;-76
2021/05/08 00:42:34;;;;;;;5.20;4.43;;;5.30;1.00;;;;;;5053934;28;20542;-74
2021/05/08 00:45:00;;;;;;;5.43;4.93;;;5.20;1.00;;;;;;5053548;28;20495;-76
2021/05/08 00:47:27;;;;;;;5.55;4.90;;;5.20;1.00;;;;;;5050421;28;20228;-75
2021/05/08 00:49:53;;;;;;;5.00;4.60;;;5.20;1.00;;;;;;5047563;28;20752;-75
2021/05/08 00:52:19;;;;;;;5.95;5.32;;;5.20;1.00;;;;;;5058643;28;20225;-73
2021/05/08 00:54:45;;;;;;;5.75;5.25;;;5.20;1.00;;;;;;5061684;28;20304;-75
2021/05/08 00:57:12;;;;;;;7.15;5.75;;;5.20;1.00;;;;;;5057085;28;20217;-74
2021/05/08 00:59:39;;;;;;;6.00;5.40;;;5.20;1.00;;;;;;5052338;28;20225;-75
2021/05/08 01:02:05;;;;;;;6.60;5.82;;;5.20;1.00;;;;;;5053652;28;20233;-73
2021/05/08 01:04:32;;;;;;;6.90;5.18;;;5.20;1.00;;;;;;5051598;28;20220;-75
2021/05/08 01:07:00;;;;;;;6.57;5.93;;;5.20;1.00;;;;;;5050966;28;20213;-74
2021/05/08 01:09:26;;;;;;;5.95;5.35;;;5.10;1.00;;;;;;5050626;28;20220;-74
2021/05/08 01:11:52;;;;;;;9.25;6.40;;;5.10;1.00;;;;;;5057300;28;20248;-74
2021/05/08 01:14:19;;;;;;;6.32;5.72;;;5.10;1.00;;;;;;5055116;28;20225;-75
2021/05/08 01:16:46;;;;;;;7.30;6.60;;;5.10;1.00;;;;;;5057734;28;20684;-74
2021/05/08 01:19:15;;;;;;;6.03;5.53;;;5.10;1.00;;;;;;5057995;28;20666;-75
2021/05/08 01:21:41;;;;;;;6.50;5.90;;;5.10;1.00;;;;;;5055183;28;20228;-74
2021/05/08 01:24:09;;;;;;;8.18;6.30;;;5.10;1.00;;;;;;5062981;28;20237;-75
2021/05/08 01:26:35;;;;;;;6.20;5.70;;;5.00;1.00;;;;;;5064524;28;20861;-75
2021/05/08 01:29:01;;;;;;;5.97;5.40;;;5.00;1.00;;;;;;5063300;28;20316;-75
2021/05/08 01:31:28;;;;;;;6.35;5.85;;;5.00;1.00;;;;;;5061484;28;20643;-75
2021/05/08 01:33:54;;;;;;;8.80;6.05;;;5.00;1.00;;;;;;5070212;28;20311;-73
2021/05/08 01:36:20;;;;;;;6.30;5.80;;;5.00;1.00;;;;;;5076047;28;20232;-73
2021/05/08 01:38:47;;;;;;;6.22;5.63;;;5.00;1.00;;;;;;5077160;28;20220;-74
2021/05/08 01:41:14;;;;;;;6.47;5.80;;;5.00;1.00;;;;;;5068415;28;20232;-75
2021/05/08 01:43:40;;;;;;;5.95;5.43;;;5.00;1.00;;;;;;5068123;28;20220;-75
2021/05/08 01:46:06;;;;;;;6.32;5.72;;;4.90;1.00;;;;;;5064306;28;20229;-73
2021/05/08 01:48:33;;;;;;;7.10;6.50;;;4.90;1.00;;;;;;5061816;28;20252;-73
2021/05/08 01:50:59;;;;;;;7.70;5.93;;;4.90;1.00;;;;;;5060466;28;20743;-74
2021/05/08 01:53:26;;;;;;;7.50;6.63;;;4.90;1.00;;;;;;5063452;28;20235;-76
2021/05/08 01:55:54;;;;;;;6.82;6.22;;;4.90;1.00;;;;;;5075030;28;20226;-75
2021/05/08 01:58:20;;;;;;;6.95;6.30;;;4.90;1.00;;;;;;5065490;28;20259;-74
2021/05/08 02:00:47;;;;;;;7.03;6.32;;;4.80;1.00;;;;;;5068946;28;20236;-73
2021/05/08 02:03:15;;;;;;;7.07;6.10;;;4.80;1.00;;;;;;5064789;28;20857;-75
2021/05/08 02:05:43;;;;;;;6.60;6.00;;;4.80;1.00;;;;;;5063941;28;20252;-74
2021/05/08 02:08:11;;;;;;;6.65;6.05;;;4.80;1.00;;;;;;5062070;28;20221;-75
2021/05/08 02:10:39;;;;;;;7.00;6.40;;;4.80;1.00;;;;;;5082473;28;20366;-74
2021/05/08 02:13:08;;;;;;;7.57;6.85;;;4.80;1.00;;;;;;5064540;28;21422;-75
2021/05/08 02:15:35;;;;;;;9.10;7.00;;;4.80;1.00;;;;;;5061963;28;20210;-73
2021/05/08 02:18:02;;;;;;;8.65;7.00;;;4.80;1.00;;;;;;5061113;28;20229;-75
2021/05/08 02:20:30;;;;;;;7.13;6.38;;;4.70;1.00;;;;;;5055348;28;20286;-74
2021/05/08 02:22:58;;;;;;;7.57;6.88;;;4.70;1.00;;;;;;5055272;28;23448;-75
2021/05/08 02:25:25;;;;;;;8.57;6.85;;;4.70;1.00;;;;;;5056100;28;20244;-74
2021/05/08 02:27:52;;;;;;;6.47;5.88;;;4.70;1.00;;;;;;5062252;28;20275;-74
2021/05/08 02:30:20;;;;;;;7.25;6.07;;;4.60;1.00;;;;;;5060721;28;20229;-75
2021/05/08 02:32:47;;;;;;;10.25;6.63;;;4.70;1.00;;;;;;5061609;28;20266;-73
2021/05/08 02:35:15;;;;;;;8.00;6.55;;;4.60;1.00;;;;;;5059638;28;20570;-75
2021/05/08 02:37:42;;;;;;;8.00;7.20;;;4.60;1.00;;;;;;5065668;28;20212;-74
2021/05/08 02:40:11;;;;;;;7.57;6.43;;;4.60;1.00;;;;;;5065841;28;21181;-77
2021/05/08 02:42:38;;;;;;;8.10;7.30;;;4.50;1.00;;;;;;5073148;28;20220;-79
2021/05/08 02:45:06;;;;;;;7.43;6.82;;;4.40;1.00;;;;;;5104971;28;20275;-76
2021/05/08 02:47:34;;;;;;;10.10;6.72;;;4.40;1.00;;;;;;5088772;28;20219;-76
2021/05/08 02:50:00;;;;;;;9.05;6.68;;;4.30;1.00;;;;;;5077033;28;20225;-77
2021/05/08 02:52:26;;;;;;;7.45;6.65;;;4.30;1.00;;;;;;5076432;28;20515;-76
2021/05/08 02:54:52;;;;;;;7.30;6.70;;;4.30;1.00;;;;;;5088348;28;20239;-76
2021/05/08 02:57:19;;;;;;;7.00;6.40;;;4.20;1.00;;;;;;5106109;28;20208;-78
2021/05/08 02:59:45;;;;;;;7.40;6.78;;;4.20;1.00;;;;;;5082813;28;20222;-77
2021/05/08 03:02:11;;;;;;;7.63;6.45;;;4.30;1.00;;;;;;5078140;28;20241;-76
2021/05/08 03:04:38;;;;;;;7.63;6.72;;;4.20;1.00;;;;;;5084955;28;20250;-77
2021/05/08 03:07:04;;;;;;;8.32;7.57;;;4.20;1.00;;;;;;5079790;28;20219;-77
2021/05/08 03:09:31;;;;;;;7.43;6.70;;;4.10;1.00;;;;;;5070965;28;20282;-77
2021/05/08 03:11:59;;;;;;;9.27;6.47;;;4.10;1.00;;;;;;5073492;28;20272;-76
2021/05/08 03:14:26;;;;;;;9.02;7.65;;;4.10;1.00;;;;;;5070007;28;20301;-76
2021/05/08 03:16:52;;;;;;;9.05;7.85;;;4.10;1.00;;;;;;5065216;28;20221;-77
2021/05/08 03:19:19;;;;;;;6.35;5.82;;;4.20;1.00;;;;;;5071477;28;20227;-77
2021/05/08 03:21:47;;;;;;;7.57;6.88;;;4.20;1.00;;;;;;5067997;28;20320;-78
2021/05/08 03:24:13;;;;;;;7.88;6.72;;;4.20;1.00;;;;;;5068649;28;20224;-76
2021/05/08 03:26:39;;;;;;;7.32;6.63;;;4.20;1.00;;;;;;5066889;28;20229;-76
2021/05/08 03:29:05;;;;;;;9.73;7.13;;;4.20;1.00;;;;;;5073065;28;20261;-76
2021/05/08 03:31:32;;;;;;;9.13;7.05;;;4.20;1.00;;;;;;5072582;28;20239;-76
2021/05/08 03:33:59;;;;;;;7.90;7.05;;;4.20;1.00;;;;;;5067726;28;20233;-76
2021/05/08 03:36:25;;;;;;;7.72;6.88;;;4.20;1.00;;;;;;5070144;28;20316;-76
2021/05/08 03:38:52;;;;;;;7.90;7.10;;;4.10;1.00;;;;;;5073374;28;21103;-77
2021/05/08 03:41:18;;;;;;;8.70;7.78;;;4.10;1.00;;;;;;5076261;28;20716;-77
2021/05/08 03:43:45;;;;;;;8.20;7.38;;;4.00;1.00;;;;;;5075162;28;20235;-77
2021/05/08 03:46:11;;;;;;;8.00;7.20;;;4.00;1.00;;;;;;5074182;28;20239;-76
2021/05/08 03:48:37;;;;;;;9.23;7.90;;;4.00;1.00;;;;;;5074264;28;20224;-77
2021/05/08 03:51:04;;;;;;;10.00;7.80;;;3.90;1.00;;;;;;5072190;28;20251;-76
2021/05/08 03:53:30;;;;;;;8.85;7.95;;;3.90;1.00;;;;;;5076484;28;20227;-78
2021/05/08 03:55:57;;;;;;;9.05;7.05;;;3.90;1.00;;;;;;5074860;28;20232;-77
2021/05/08 03:58:26;;;;;;;9.32;8.43;;;3.90;1.00;;;;;;5090206;28;20217;-76
2021/05/08 04:00:52;;;;;;;8.02;7.22;;;4.00;1.00;;;;;;5083721;28;20344;-76
2021/05/08 04:03:18;;;;;;;8.68;7.88;;;4.00;1.00;;;;;;5084695;28;20305;-76
2021/05/08 04:05:45;;;;;;;8.30;7.60;;;4.00;1.00;;;;;;5092706;28;20287;-77
2021/05/08 04:08:11;;;;;;;9.88;8.60;;;4.00;1.00;;;;;;5084134;28;20270;-76
2021/05/08 04:10:37;;;;;;;8.20;7.38;;;4.00;1.00;;;;;;5093387;28;20252;-77
2021/05/08 04:13:04;;;;;;;8.48;7.55;;;4.00;1.00;;;;;;5089680;28;20297;-77
2021/05/08 04:15:31;;;;;;;9.65;8.35;;;4.00;1.00;;;;;;5085419;28;20220;-78
2021/05/08 04:17:57;;;;;;;9.88;8.82;;;4.10;1.00;;;;;;5088377;28;20292;-78
2021/05/08 04:20:23;;;;;;;8.38;7.57;;;4.10;1.00;;;;;;5085139;28;20224;-77
2021/05/08 04:22:49;;;;;;;7.72;6.97;;;4.10;1.00;;;;;;5077769;28;20212;-77
2021/05/08 04:25:16;;;;;;;8.52;7.47;;;4.20;1.00;;;;;;5090685;28;21054;-76
2021/05/08 04:27:42;;;;;;;9.40;7.53;;;4.20;1.00;;;;;;5075830;28;20295;-76
2021/05/08 04:30:10;;;;;;;10.23;6.95;;;4.20;1.00;;;;;;5076964;28;20312;-77
2021/05/08 04:32:36;;;;;;;8.63;7.72;;;4.20;1.00;;;;;;5076250;28;20215;-78
2021/05/08 04:35:03;;;;;;;9.07;8.18;;;4.30;1.00;;;;;;5077405;28;21083;-76
2021/05/08 04:37:29;;;;;;;8.45;7.65;;;4.40;1.00;;;;;;5080756;28;20227;-75
2021/05/08 04:39:56;;;;;;;8.48;7.68;;;4.50;1.00;;;;;;5083308;28;20279;-78
2021/05/08 04:42:22;;;;;;;9.55;8.23;;;4.50;1.00;;;;;;5091209;28;20236;-78
2021/05/08 04:44:48;;;;;;;7.97;7.18;;;4.60;1.00;;;;;;5089220;28;20256;-78
2021/05/08 04:47:16;;;;;;;8.13;7.43;;;4.70;1.00;;;;;;5089065;28;20281;-77
2021/05/08 04:49:42;;;;;;;10.25;7.57;;;4.70;1.00;;;;;;5077854;28;20209;-76
2021/05/08 04:52:09;;;;;;;7.25;6.60;;;4.80;1.00;;;;;;5071368;28;20421;-77
2021/05/08 04:54:35;;;;;;;8.85;7.93;;;4.90;1.00;;;;;;5066812;28;20243;-77
2021/05/08 04:57:01;;;;;;;8.63;7.78;;;5.10;1.00;;;;;;5079920;28;20220;-77
2021/05/08 04:59:27;;;;;;;9.23;8.20;;;5.30;1.00;;;;;;5075400;28;20217;-77
2021/05/08 05:01:54;;;;;;;8.40;6.72;;;5.50;1.00;;;;;;5080043;28;21529;-78
2021/05/08 05:04:21;;;;;;;6.45;5.85;;;5.80;1.00;;;;;;5064035;28;20224;-77
2021/05/08 05:06:47;;;;;;;7.05;6.20;;;5.90;1.00;;;;;;5062642;28;20691;-79
2021/05/08 05:09:13;;;;;;;11.50;7.68;;;6.00;1.00;;;;;;5067548;28;20213;-78
2021/05/08 05:11:39;;;;;;;11.95;6.43;;;6.00;1.00;;;;;;5068340;28;20672;-78
2021/05/08 05:14:06;;;;;;;7.55;6.85;;;5.90;1.00;;;;;;5059491;28;20239;-80
2021/05/08 05:16:32;;;;;;;5.45;4.95;;;6.00;1.00;;;;;;5062036;28;20221;-77
2021/05/08 05:18:59;;;;;;;6.82;6.07;;;5.90;1.00;;;;;;5064754;28;20703;-78
2021/05/08 05:21:26;;;;;;;5.90;5.28;;;5.90;1.00;;;;;;5067347;28;21455;-77
2021/05/08 05:23:52;;;;;;;7.30;6.30;;;6.00;1.00;;;;;;5062131;28;20217;-78
2021/05/08 05:26:18;;;;;;;5.97;5.43;;;6.10;1.00;;;;;;5061479;28;21053;-78
2021/05/08 05:28:44;;;;;;;6.47;4.93;;;6.10;1.00;;;;;;5063146;28;20255;-78
2021/05/08 05:31:10;;;;;;;6.43;5.35;;;6.40;1.00;;;;;;5057043;28;20775;-76
2021/05/08 05:33:37;;;;;;;8.63;5.70;;;6.50;1.00;;;;;;5061822;28;20229;-78
2021/05/08 05:36:03;;;;;;;6.45;5.85;;;6.70;1.00;;;;;;5061034;28;20221;-77
2021/05/08 05:38:31;;;;;;;8.75;5.45;;;6.80;1.00;;;;;;5064408;28;20356;-76
2021/05/08 05:40:57;;;;;;;5.90;5.30;;;6.90;1.00;;;;;;5069925;28;20352;-77
2021/05/08 05:43:24;;;;;;;7.75;5.85;;;7.00;1.00;;;;;;5066688;28;20232;-77
2021/05/08 05:45:52;;;;;;;7.55;4.65;;;7.00;1.00;;;;;;5066843;28;20278;-80
2021/05/08 05:48:20;;;;;;;5.35;4.78;;;7.00;1.00;;;;;;5057805;28;20308;-75
2021/05/08 05:50:47;;;;;;;5.25;4.72;;;7.20;1.00;;;;;;5057104;28;20220;-74
2021/05/08 05:53:13;;;;;;;7.25;4.65;;;7.40;1.00;;;;;;5054470;28;20232;-76
2021/05/08 05:55:40;;;;;;;7.82;4.95;;;7.80;1.00;;;;;;5056028;28;20217;-75
2021/05/08 05:58:06;;;;;;;4.78;4.35;;;8.00;1.00;;;;;;5051743;28;20229;-76
2021/05/08 06:00:33;;;;;;;5.57;4.95;;;8.30;1.00;;;;;;5052440;28;20265;-74
2021/05/08 06:02:59;;;;;;;16.58;5.18;;;8.50;1.00;;;;;;5049744;28;20229;-76
2021/05/08 06:05:25;;;;;;;4.30;3.80;;;8.50;1.00;;;;;;5051838;28;20888;-72
2021/05/08 06:07:52;;;;;;;6.43;4.15;;;8.50;1.00;;;;;;5050665;28;20297;-75
2021/05/08 06:10:18;;;;;;;7.28;4.10;;;8.60;1.00;;;;;;5051923;28;20233;-74
2021/05/08 06:12:45;;;;;;;12.60;4.90;;;8.60;1.00;;;;;;5051751;28;20663;-75
2021/05/08 06:15:13;;;;;;;4.82;4.10;;;8.60;1.00;;;;;;5047631;28;20304;-75
2021/05/08 06:17:40;;;;;;;5.30;4.30;;;8.60;1.00;;;;;;5049753;28;20290;-76
2021/05/08 06:20:08;;;;;;;7.18;4.18;;;8.60;1.00;;;;;;5053267;28;20716;-75
2021/05/08 06:22:34;;;;;;;4.75;4.10;;;8.70;1.00;;;;;;5048874;28;20267;-74
2021/05/08 06:25:01;;;;;;;10.90;4.88;;;8.80;1.00;;;;;;5055251;28;20221;-76
2021/05/08 06:27:27;;;;;;;7.75;4.22;;;8.90;1.00;;;;;;5048951;28;20225;-74
2021/05/08 06:29:54;;;;;;;7.20;4.22;;;9.10;1.00;;;;;;5051747;28;20237;-73
2021/05/08 06:32:20;;;;;;;6.63;4.40;;;9.30;1.00;;;;;;5054654;28;20213;-73
2021/05/08 06:34:48;;;;;;;6.72;4.60;;;9.60;1.00;;;;;;5051356;28;20213;-75
2021/05/08 06:37:14;;;;;;;5.72;4.20;;;9.80;1.00;;;;;;5053638;28;20328;-75
2021/05/08 06:39:41;;;;;;;8.77;3.85;;;9.80;1.00;;;;;;5050813;28;20266;-74
2021/05/08 06:42:08;;;;;;;6.95;4.50;;;9.80;1.00;;;;;;5052238;28;20233;-75
2021/05/08 06:44:34;;;;;;;6.78;3.67;;;9.90;1.00;;;;;;5052746;28;20282;-74
2021/05/08 06:47:01;;;;;;;10.10;3.80;;;9.80;1.00;;;;;;5051585;28;20298;-76
2021/05/08 06:49:27;;;;;;;3.95;3.15;;;9.90;1.00;;;;;;5048995;28;20225;-71
2021/05/08 06:51:53;;;;;;;4.90;3.28;;;9.90;1.00;;;;;;5050916;28;20221;-77
2021/05/08 06:54:19;;;;;;;5.65;3.05;;;10.00;1.00;;;;;;5050391;28;20249;-75
2021/05/08 06:56:46;;;;;;;6.60;3.38;;;9.80;1.00;;;;;;5053601;28;20327;-74
2021/05/08 06:59:12;;;;;;;5.15;3.75;;;9.70;1.00;;;;;;5058720;28;20268;-75
2021/05/08 07:01:39;;;;;;;4.80;3.22;;;9.60;1.00;;;;;;5056046;28;20233;-76
2021/05/08 07:04:06;;;;;;;6.55;3.75;;;9.60;1.00;;;;;;5048188;28;20917;-75
2021/05/08 07:06:32;;;;;;;3.70;3.05;;;9.70;1.00;;;;;;5051569;28;20250;-74
2021/05/08 07:09:00;;;;;;;3.55;2.75;;;9.70;1.00;;;;;;5048606;28;20300;-75
2021/05/08 07:11:26;;;;;;;6.10;3.17;;;9.70;1.00;;;;;;5053306;28;20654;-74
2021/05/08 07:13:52;;;;;;;7.38;2.92;;;9.70;1.00;;;;;;5050761;28;20275;-76
2021/05/08 07:16:19;;;;;;;7.47;6.80;;;9.80;1.00;;;;;;5056932;28;20219;-73
2021/05/08 07:18:45;;;;;;;6.43;2.40;;;9.90;1.00;;;;;;5054038;28;20225;-75
2021/05/08 07:21:12;;;;;;;4.28;2.50;;;10.00;1.00;;;;;;5050673;28;20233;-76
2021/05/08 07:23:38;;;;;;;3.65;2.95;;;10.00;1.00;;;;;;5049504;28;20245;-75
2021/05/08 07:26:04;;;;;;;3.72;2.30;;;10.10;1.00;;;;;;5050814;28;20221;-75
2021/05/08 07:28:30;;;;;;;3.47;2.60;;;10.10;1.00;;;;;;5054234;28;20228;-75
2021/05/08 07:30:56;;;;;;;3.83;2.92;;;10.30;1.00;;;;;;5049040;28;20327;-75
2021/05/08 07:33:24;;;;;;;3.47;3.00;;;10.40;1.00;;;;;;5050050;28;20639;-76
2021/05/08 07:35:51;;;;;;;5.13;3.53;;;10.40;1.00;;;;;;5046908;28;20424;-74
2021/05/08 07:38:19;;;;;;;4.07;3.20;;;10.50;1.00;;;;;;5051046;28;20262;-76
2021/05/08 07:40:49;;;;;;;3.30;2.63;;;10.60;1.00;;;;;;5050264;28;20236;-75
2021/05/08 07:43:17;;;;;;;6.25;2.40;;;10.80;1.00;;;;;;5051221;28;20282;-73
2021/05/08 07:45:43;;;;;;;5.68;3.05;;;10.80;1.00;;;;;;5052089;28;20742;-75
2021/05/08 07:48:09;;;;;;;5.20;2.90;;;10.90;1.00;;;;;;5049708;28;20216;-74
2021/05/08 07:50:35;;;;;;;2.47;2.15;;;11.00;1.00;;;;;;5052599;28;20264;-75
2021/05/08 07:53:02;;;;;;;3.60;2.88;;;11.10;1.00;;;;;;5048023;28;20241;-75
2021/05/08 07:55:29;;;;;;;5.05;3.13;;;11.10;1.00;;;;;;5054855;28;20293;-73
2021/05/08 07:57:56;;;;;;;4.32;2.58;;;11.20;1.00;;;;;;5054233;28;20240;-76
2021/05/08 08:00:22;;;;;;;3.10;2.20;;;11.20;1.00;;;;;;5056751;28;20243;-75
2021/05/08 08:02:49;;;;;;;4.68;2.40;;;11.20;1.00;;;;;;5051739;28;21003;-74
2021/05/08 08:05:15;;;;;;;5.63;3.10;;;11.30;1.00;;;;;;5048301;28;20236;-74
2021/05/08 08:07:41;;;;;;;2.87;2.17;;;11.30;1.00;;;;;;5049278;28;20221;-76
2021/05/08 08:10:09;;;;;;;3.05;1.90;;;11.40;1.00;;;;;;5055496;28;20480;-75
2021/05/08 08:12:38;;;;;;;3.67;2.33;;;11.50;1.00;;;;;;5055800;28;20283;-74
2021/05/08 08:15:05;;;;;;;2.67;2.08;;;11.50;1.00;;;;;;5054478;28;20222;-74
2021/05/08 08:17:33;;;;;;;2.90;2.35;;;11.50;1.00;;;;;;5055723;28;20221;-76
2021/05/08 08:19:59;;;;;;;3.25;2.50;;;11.40;1.00;;;;;;5055125;28;20227;-75
2021/05/08 08:22:25;;;;;;;5.18;2.85;;;11.40;1.00;;;;;;5055832;28;20293;-75
2021/05/08 08:24:52;;;;;;;3.35;2.97;;;11.60;1.00;;;;;;5053467;28;20245;-77
2021/05/08 08:27:18;;;;;;;3.97;3.00;;;11.80;1.00;;;;;;5052979;28;21159;-74
2021/05/08 08:29:45;;;;;;;6.90;3.40;;;11.80;1.00;;;;;;5054846;28;20256;-75
2021/05/08 08:32:12;;;;;;;5.03;2.93;;;11.90;1.00;;;;;;5052395;28;20990;-75
2021/05/08 08:34:38;;;;;;;4.65;4.18;;;11.90;1.00;;;;;;5054189;28;20586;-74
2021/05/08 08:37:06;;;;;;;3.72;3.38;;;12.10;1.00;;;;;;5053604;28;20770;-75
2021/05/08 08:39:32;;;;;;;5.37;3.80;;;12.10;1.00;;;;;;5050997;28;20224;-73
2021/05/08 08:41:59;;;;;;;7.72;4.40;;;12.10;1.00;;;;;;5055503;28;20452;-74
2021/05/08 08:44:25;;;;;;;5.63;3.50;;;12.10;1.00;;;;;;5055922;28;20225;-74
2021/05/08 08:46:53;;;;;;;4.13;3.73;;;12.20;1.00;;;;;;5055270;28;21452;-74
2021/05/08 08:49:19;;;;;;;5.07;3.70;;;12.40;1.00;;;;;;5055609;28;20495;-73
2021/05/08 08:51:46;;;;;;;6.80;3.37;;;12.70;1.00;;;;;;5066189;28;21881;-73
2021/05/08 08:54:13;;;;;;;5.73;3.67;;;13.00;1.00;;;;;;5066506;28;20485;-73
2021/05/08 08:56:42;;;;;;;5.17;3.80;;;13.20;1.00;;;;;;5068316;28;20474;-75
2021/05/08 08:59:15;;;;;;;4.07;3.40;;;13.40;1.00;;;;;;5064237;28;20834;-77
2021/05/08 09:01:42;;;;;;;5.20;3.60;;;13.40;1.00;;;;;;5064130;28;21272;-75
2021/05/08 09:04:10;;;;;;;5.00;2.90;;;13.60;1.00;;;;;;5061961;28;20469;-74
2021/05/08 09:06:38;;;;;;;6.00;3.97;;;13.60;1.00;;;;;;5064694;28;21307;-76
2021/05/08 09:09:05;;;;;;;4.87;3.20;;;13.60;1.00;;;;;;5056913;28;20588;-74
2021/05/08 09:11:31;;;;;;;3.50;3.20;;;13.80;1.00;;;;;;5062931;28;21011;-74
2021/05/08 09:14:25;;;;;;;3.70;3.30;;;14.00;1.00;;;;;;5046824;28;20424;-74
2021/05/08 09:17:02;;;;;;;3.47;3.17;;;14.20;1.00;;;;;;5015619;28;20431;-73
2021/05/08 09:19:31;;;;;;;3.87;3.53;;;14.30;1.00;;;;;;5055086;28;21292;-73
2021/05/08 09:21:58;;;;;;;3.77;2.97;;;14.20;1.00;;;;;;5058911;28;20471;-76
2021/05/08 09:24:24;;;;;;;3.17;2.97;;;14.50;1.00;;;;;;5057959;28;20466;-77
2021/05/08 09:26:52;;;;;;;6.80;3.40;;;14.70;1.00;;;;;;5058317;28;20431;-72
2021/05/08 09:29:21;;;;;;;5.33;3.73;;;14.80;1.00;;;;;;5058393;28;20462;-74
2021/05/08 09:31:51;;;;;;;7.43;5.97;;;15.00;1.00;;;;;;5060243;28;20459;-73
2021/05/08 09:34:19;;;;;;;3.57;3.27;;;15.10;1.00;;;;;;5060684;28;20442;-73
2021/05/08 09:36:50;;;;;;;3.40;3.10;;;15.00;1.00;;;;;;5053753;28;20566;-73
2021/05/08 09:39:29;;;;;;;4.73;3.63;;;14.90;1.00;;;;;;5062500;28;21054;-75
2021/05/08 09:41:56;;;;;;;3.50;3.10;;;16.20;1.00;;;;;;5060939;28;20530;-75
2021/05/08 09:44:22;;;;;;;3.20;2.80;;;17.90;1.00;;;;;;5068236;28;21230;-74
2021/05/08 09:46:48;;;;;;;4.50;3.72;;;19.60;1.00;;;;;;5068533;28;20407;-79
2021/05/08 09:49:16;;;;;;;6.80;3.40;;;20.50;1.00;;;;;;5076301;28;20240;-77
2021/05/08 09:51:42;;;;;;;3.57;2.57;;;19.70;1.00;;;;;;5071144;28;20465;-77
2021/05/08 09:54:14;;;;;;;3.17;2.90;;;18.70;1.00;;;;;;5071290;28;20490;-77
2021/05/08 09:56:41;;;;;;;4.87;3.73;;;17.90;1.00;;;;;;5071541;28;21222;-77
2021/05/08 09:59:25;;;;;;;3.27;2.97;;;17.30;1.00;;;;;;5080751;28;20481;-78
2021/05/08 10:02:14;;;;;;;6.43;4.30;;;18.20;1.00;;;;;;5069511;28;20465;-79
2021/05/08 10:04:44;;;;;;;5.13;3.97;;;18.90;1.00;;;;;;5075922;28;20480;-75
2021/05/08 10:07:11;;;;;;;3.60;3.30;;;18.30;1.00;;;;;;5060899;28;20524;-76
2021/05/08 10:09:39;;;;;;;5.67;3.60;;;18.20;1.00;;;;;;5067712;28;20551;-75
2021/05/08 10:12:07;;;;;;;4.27;3.40;;;19.40;1.00;;;;;;5064508;28;20460;-74
2021/05/08 10:14:35;;;;;;;4.00;3.60;;;21.30;1.00;;;;;;5062320;28;20940;-75
2021/05/08 10:17:01;;;;;;;3.50;3.20;;;22.30;1.00;;;;;;5060398;28;20497;-74
2021/05/08 10:19:30;;;;;;;3.00;2.50;;;22.50;1.00;;;;;;5060887;28;20948;-74
2021/05/08 10:21:58;;;;;;;3.20;2.47;;;23.10;1.00;;;;;;5055752;28;20471;-75
2021/05/08 10:24:26;;;;;;;3.73;3.23;;;23.80;1.00;;;;;;5061987;28;20466;-74
2021/05/08 10:26:57;;;;;;;3.30;3.00;;;23.80;1.00;;;;;;5063218;28;20515;-75
2021/05/08 10:29:24;;;;;;;3.90;2.40;;;22.90;1.00;;;;;;5062349;28;20452;-73
2021/05/08 10:31:51;;;;;;;4.53;4.13;;;21.90;1.00;;;;;;5062773;28;20458;-74
2021/05/08 10:34:17;;;;;;;3.37;3.07;;;20.60;1.00;;;;;;5058656;28;20450;-75
2021/05/08 10:36:47;;;;;;;4.20;3.80;;;19.60;1.00;;;;;;5061521;28;20486;-74
2021/05/08 10:39:14;;;;;;;3.63;3.33;;;19.40;1.00;;;;;;5057813;28;20750;-72
2021/05/08 10:41:50;;;;;;;4.23;3.83;;;20.10;1.00;;;;;;5060930;28;20949;-75
2021/05/08 10:44:44;;;;;;;4.50;4.13;;;20.40;1.00;;;;;;5062837;28;20496;-75
2021/05/08 10:47:14;;;;;;;3.73;3.43;;;19.60;1.00;;;;;;5062578;28;20452;-75
2021/05/08 10:49:40;;;;;;;4.60;4.20;;;19.00;1.00;;;;;;5057923;28;20455;-75
2021/05/08 10:52:06;;;;;;;6.60;5.30;;;18.40;1.00;;;;;;5058410;28;20462;-75
2021/05/08 10:54:55;;;;;;;7.60;6.90;;;17.80;1.00;;;;;;5067238;28;20511;-74
2021/05/08 10:57:24;;;;;;;5.33;3.83;;;17.90;1.00;;;;;;5054935;28;20460;-73
2021/05/08 11:00:24;;;;;;;3.60;3.40;;;19.60;1.00;;;;;;5061865;28;20558;-73
2021/05/08 11:03:04;;;;;;;3.87;3.57;;;19.80;1.00;;;;;;5063694;28;20472;-73
2021/05/08 11:05:33;;;;;;;4.35;3.95;;;18.80;1.00;;;;;;5062028;28;20417;-73
2021/05/08 11:08:00;;;;;;;3.50;3.20;;;18.10;1.00;;;;;;5062917;28;20360;-73
2021/05/08 11:10:37;;;;;;;5.20;4.53;;;18.40;1.00;;;;;;5063015;28;21310;-75
2021/05/08 11:13:08;;;;;;;3.97;3.67;;;20.10;1.00;;;;;;5061309;28;20447;-74
2021/05/08 11:16:10;;;;;;;3.73;3.43;;;20.90;1.00;;;;;;5060168;28;20454;-73
2021/05/08 11:18:39;;;;;;;3.90;3.60;;;21.20;1.00;;;;;;5055840;28;20490;-73
2021/05/08 11:21:40;;;;;;;4.87;3.90;;;21.40;1.00;;;;;;5061945;28;21139;-75
2021/05/08 11:24:09;;;;;;;3.83;3.43;;;21.90;1.00;;;;;;5058212;28;20495;-73
2021/05/08 11:26:40;;;;;;;4.47;3.00;;;21.50;1.00;;;;;;5065604;28;20492;-75
2021/05/08 11:29:09;;;;;;;4.77;4.10;;;20.90;1.00;;;;;;5059484;28;20435;-75
2021/05/08 11:31:38;;;;;;;3.53;3.23;;;20.40;1.00;;;;;;5062161;28;20525;-74
2021/05/08 11:34:10;;;;;;;3.33;3.10;;;21.80;1.00;;;;;;5063772;28;20972;-75
2021/05/08 11:36:44;;;;;;;3.30;3.10;;;23.40;1.00;;;;;;5060939;28;21538;-75
2021/05/08 11:39:11;;;;;;;3.03;2.73;;;24.90;1.00;;;;;;5063909;28;20461;-72
2021/05/08 11:41:38;;;;;;;3.17;2.97;;;24.50;1.00;;;;;;5061702;28;20463;-73
2021/05/08 11:44:04;;;;;;;4.53;4.17;;;23.30;1.00;;;;;;5064906;28;20592;-75
2021/05/08 11:46:32;;;;;;;6.90;4.37;;;21.50;1.00;;;;;;5060350;28;20517;-74
2021/05/08 11:49:00;;;;;;;3.60;3.40;;;20.90;1.00;;;;;;5060436;28;20437;-75
2021/05/08 11:51:27;;;;;;;3.30;3.00;;;22.60;1.00;;;;;;5055795;28;21004;-75
2021/05/08 11:54:10;;;;;;;3.57;3.10;;;24.30;1.00;;;;;;5058869;28;20507;-75
2021/05/08 11:56:38;;;;;;;3.43;3.20;;;23.70;1.00;;;;;;5063470;28;20450;-74
2021/05/08 11:59:06;;;;;;;2.90;2.70;;;22.50;1.00;;;;;;5060683;28;20482;-74
2021/05/08 12:01:32;;;;;;;3.23;3.00;;;22.60;1.00;;;;;;5065618;28;20453;-73
2021/05/08 12:04:05;;;;;;;6.07;4.93;;;22.80;1.00;;;;;;5069388;28;20461;-75
2021/05/08 12:06:32;;;;;;;2.80;2.60;;;24.30;1.00;;;;;;5059644;28;20844;-77
2021/05/08 12:09:06;;;;;;;3.53;3.23;;;25.50;1.00;;;;;;5061205;28;20497;-75
2021/05/08 12:11:33;;;;;;;6.60;5.47;;;26.00;1.00;;;;;;5059774;28;20508;-74
2021/05/08 12:14:11;;;;;;;3.80;3.10;;;25.00;1.00;;;;;;5058391;28;20611;-74
2021/05/08 12:16:39;;;;;;;4.60;3.83;;;24.50;1.00;;;;;;5057882;28;20417;-76
2021/05/08 12:19:06;;;;;;;3.07;2.77;;;25.60;1.00;;;;;;5068076;28;20224;-75
2021/05/08 12:21:32;;;;;;;3.00;2.80;;;25.90;1.00;;;;;;5065253;28;20437;-76
2021/05/08 12:23:59;;;;;;;3.57;3.37;;;25.10;1.00;;;;;;5068014;28;20523;-76
2021/05/08 12:26:25;;;;;;;3.70;3.47;;;23.90;1.00;;;;;;5064134;28;20509;-78
2021/05/08 12:28:57;;;;;;;3.30;2.70;;;24.00;1.00;;;;;;5059884;28;20419;-75
2021/05/08 12:31:25;;;;;;;2.50;2.30;;;24.90;1.00;;;;;;5052393;28;20439;-75
2021/05/08 12:33:53;;;;;;;3.53;2.83;;;25.30;1.00;;;;;;5041871;28;20446;-75
2021/05/08 12:36:22;;;;;;;5.90;3.70;;;24.10;1.00;;;;;;5056254;28;20454;-78
2021/05/08 12:38:49;;;;;;;2.93;2.73;;;24.70;1.00;;;;;;5065348;28;20452;-75
2021/05/08 12:41:27;;;;;;;3.30;3.00;;;25.40;1.00;;;;;;5059779;28;20459;-75
2021/05/08 12:44:08;;;;;;;6.27;4.80;;;24.80;1.00;;;;;;5054651;28;20461;-73
2021/05/08 12:46:59;;;;;;;3.20;2.90;;;24.10;1.00;;;;;;5061693;28;21312;-75
2021/05/08 12:49:25;;;;;;;3.07;2.77;;;23.30;1.00;;;;;;5068335;28;20465;-73
2021/05/08 12:51:53;;;;;;;3.23;3.00;;;24.30;1.00;;;;;;5052521;28;20523;-74
2021/05/08 12:54:23;;;;;;;3.30;2.93;;;26.30;1.00;;;;;;5049765;28;20464;-74
2021/05/08 12:56:50;;;;;;;2.90;2.30;;;27.00;1.00;;;;;;5061305;28;20881;-73
2021/05/08 12:59:24;;;;;;;2.87;2.67;;;26.40;1.00;;;;;;5084552;28;20504;-73
2021/05/08 13:01:51;;;;;;;3.27;2.40;;;26.50;1.00;;;;;;5079191;28;20420;-74
2021/05/08 13:04:18;;;;;;;3.73;2.30;;;26.50;1.00;;;;;;5075616;28;20436;-74
2021/05/08 13:06:45;;;;;;;3.00;2.57;;;26.20;1.00;;;;;;5082930;28;20459;-75